Time;durP1;ratioP1;P1;durP2;ratioP2;P2;SDS_P1;SDS_P2;PMS_P1;PMS_P2;Temp;Humidity;BMP_temperature;BMP_pressure;BME280_temperature;BME280_humidity;BME280_pressure;Samples;Min_cycle;Max_cycle;Signal;HPM_P1;HPM_P2
2022/01/19 00:01:11;;;;;;;9.30;5.80;;;3.00;72.90;;;;;;7357366;19;20132;-73
2022/01/19 00:03:41;;;;;;;9.57;6.40;;;2.90;73.10;;;;;;7376568;19;20476;-73
2022/01/19 00:06:10;;;;;;;9.55;4.95;;;2.80;73.70;;;;;;7365226;19;20244;-72
2022/01/19 00:08:40;;;;;;;8.00;5.78;;;2.90;73.70;;;;;;7371942;19;20693;-76
2022/01/19 00:11:09;;;;;;;10.57;5.78;;;2.80;74.00;;;;;;7372653;19;20926;-73
2022/01/19 00:13:41;;;;;;;8.00;5.75;;;2.80;74.00;;;;;;7372367;19;20142;-75
2022/01/19 00:16:11;;;;;;;15.73;6.88;;;2.70;74.40;;;;;;7377230;19;20140;-74
2022/01/19 00:18:41;;;;;;;11.18;7.28;;;2.80;74.20;;;;;;7375106;19;20131;-74
2022/01/19 00:21:10;;;;;;;9.18;5.93;;;2.80;73.90;;;;;;7371886;19;20136;-75
2022/01/19 00:23:40;;;;;;;9.52;5.15;;;2.70;74.10;;;;;;7375652;19;20143;-73
2022/01/19 00:26:09;;;;;;;8.45;5.75;;;2.60;74.80;;;;;;7376181;19;20908;-74
2022/01/19 00:28:41;;;;;;;11.15;7.07;;;2.50;75.20;;;;;;7373261;19;20519;-74
2022/01/19 00:31:13;;;;;;;9.38;6.45;;;2.60;75.10;;;;;;7376324;19;21652;-76
2022/01/19 00:33:43;;;;;;;10.95;6.93;;;2.50;74.60;;;;;;7372489;19;20232;-76
2022/01/19 00:36:15;;;;;;;14.57;6.55;;;2.40;75.50;;;;;;7374117;19;20143;-73
2022/01/19 00:38:44;;;;;;;7.70;6.32;;;2.40;75.70;;;;;;7373190;19;20725;-74
2022/01/19 00:41:14;;;;;;;7.90;6.43;;;2.40;75.90;;;;;;7375565;19;20135;-74
2022/01/19 00:43:46;;;;;;;11.25;7.18;;;2.40;75.90;;;;;;7379006;19;21007;-73
2022/01/19 00:46:15;;;;;;;10.77;7.10;;;2.30;76.40;;;;;;7376163;19;20155;-73
2022/01/19 00:48:45;;;;;;;10.30;6.90;;;2.20;77.00;;;;;;7380777;19;20971;-74
2022/01/19 00:51:14;;;;;;;16.65;6.80;;;2.20;77.10;;;;;;7382108;19;20131;-74
2022/01/19 00:53:44;;;;;;;16.25;8.35;;;2.20;77.00;;;;;;7379852;19;21177;-74
2022/01/19 00:56:13;;;;;;;12.85;7.40;;;2.20;76.80;;;;;;7384073;19;20147;-73
2022/01/19 00:58:46;;;;;;;14.20;7.82;;;2.10;77.20;;;;;;7386160;19;20186;-74
2022/01/19 01:01:15;;;;;;;16.73;7.00;;;2.10;77.50;;;;;;7386917;19;20135;-74
2022/01/19 01:03:45;;;;;;;12.90;7.50;;;2.10;77.70;;;;;;7394162;19;20140;-73
2022/01/19 01:06:14;;;;;;;12.35;5.97;;;2.00;77.90;;;;;;7398289;19;20140;-72
2022/01/19 01:08:44;;;;;;;13.82;8.35;;;1.90;78.30;;;;;;7401076;19;20147;-73
2022/01/19 01:11:13;;;;;;;12.82;7.82;;;1.90;78.40;;;;;;7403383;19;20151;-73
2022/01/19 01:16:36;;;;;;;14.95;8.02;;;2.00;78.20;;;;;;7384081;19;20204;-74
2022/01/19 01:19:07;;;;;;;11.05;6.90;;;1.90;78.30;;;;;;7383095;19;20142;-74
2022/01/19 01:21:39;;;;;;;14.80;8.05;;;1.90;78.30;;;;;;7379136;19;20263;-74
2022/01/19 01:24:09;;;;;;;15.05;8.90;;;2.00;78.10;;;;;;7378733;19;21041;-74
2022/01/19 01:26:41;;;;;;;18.85;7.70;;;2.00;78.40;;;;;;7377636;19;20147;-73
2022/01/19 01:29:15;;;;;;;10.10;6.68;;;1.90;78.40;;;;;;7376211;19;21006;-75
2022/01/19 01:31:44;;;;;;;11.82;7.75;;;1.90;78.90;;;;;;7377484;19;20146;-74
2022/01/19 01:34:14;;;;;;;13.88;7.85;;;1.90;79.00;;;;;;7377284;19;20162;-74
2022/01/19 01:36:43;;;;;;;12.40;7.78;;;2.00;78.40;;;;;;7379569;19;20135;-73
2022/01/19 01:39:13;;;;;;;12.63;8.05;;;2.00;78.50;;;;;;7375324;19;20147;-74
2022/01/19 01:41:42;;;;;;;14.18;8.55;;;2.00;78.20;;;;;;7374235;19;20138;-74
2022/01/19 01:44:21;;;;;;;13.15;9.25;;;2.00;78.30;;;;;;7375093;19;20143;-74
2022/01/19 01:46:56;;;;;;;13.68;8.45;;;1.90;78.60;;;;;;7375607;19;20146;-74
2022/01/19 01:49:39;;;;;;;13.70;8.73;;;1.90;79.00;;;;;;7376515;19;20805;-72
2022/01/19 01:54:51;;;;;;;14.48;8.68;;;1.80;79.10;;;;;;7409617;19;20136;-74
2022/01/19 01:57:20;;;;;;;14.48;8.45;;;1.80;79.10;;;;;;7413015;19;20172;-73
2022/01/19 01:59:54;;;;;;;9.95;7.75;;;1.80;79.30;;;;;;7401304;19;20187;-74
2022/01/19 02:02:47;;;;;;;11.98;7.35;;;1.80;79.40;;;;;;7413496;19;20134;-75
2022/01/19 02:05:22;;;;;;;18.13;7.43;;;1.70;79.50;;;;;;7411911;19;20116;-73
2022/01/19 02:08:02;;;;;;;13.93;8.32;;;1.70;79.80;;;;;;7407456;19;20216;-73
2022/01/19 02:10:39;;;;;;;13.30;8.77;;;1.70;80.00;;;;;;7412058;19;20416;-72
2022/01/19 02:16:15;;;;;;;12.95;8.02;;;1.80;79.40;;;;;;7423980;19;20164;-73
2022/01/19 02:21:46;;;;;;;12.07;8.55;;;1.80;79.60;;;;;;7424343;19;20138;-73
2022/01/19 02:24:21;;;;;;;14.65;8.45;;;1.80;79.60;;;;;;7423420;19;20156;-74
2022/01/19 02:26:59;;;;;;;16.63;10.02;;;1.80;79.80;;;;;;7429043;19;20152;-73
2022/01/19 02:40:28;;;;;;;13.55;8.40;;;2.00;79.80;;;;;;7381463;19;20671;-73
2022/01/19 02:43:07;;;;;;;12.32;8.18;;;2.00;80.00;;;;;;7384412;19;20147;-74
2022/01/19 02:51:07;;;;;;;12.95;9.50;;;2.00;80.00;;;;;;7377899;19;20624;-75
2022/01/19 02:53:40;;;;;;;10.35;7.93;;;2.10;79.60;;;;;;7372586;19;20145;-74
2022/01/19 02:56:17;;;;;;;12.70;8.30;;;2.10;79.50;;;;;;7377213;19;20160;-73
2022/01/19 02:58:51;;;;;;;13.63;7.72;;;2.00;79.60;;;;;;7375133;19;20190;-73
2022/01/19 03:09:30;;;;;;;16.75;8.85;;;1.90;80.00;;;;;;7372167;19;20156;-73
2022/01/19 03:12:00;;;;;;;17.80;9.23;;;1.80;80.00;;;;;;7373731;19;20478;-73
2022/01/19 03:14:29;;;;;;;15.45;8.50;;;1.70;80.10;;;;;;7368398;19;20135;-73
2022/01/19 03:16:59;;;;;;;13.13;8.95;;;1.60;80.40;;;;;;7373078;19;20140;-73
2022/01/19 03:19:30;;;;;;;13.95;7.35;;;1.60;80.40;;;;;;7371235;19;20887;-74
2022/01/19 03:22:00;;;;;;;15.48;8.80;;;1.60;80.20;;;;;;7375008;19;20680;-74
2022/01/19 03:24:38;;;;;;;12.40;7.55;;;2.00;80.80;;;;;;7379839;19;20664;-72
2022/01/19 03:27:08;;;;;;;16.08;8.18;;;1.60;80.40;;;;;;7379747;19;20159;-73
2022/01/19 03:29:48;;;;;;;17.85;8.60;;;1.60;81.30;;;;;;7375347;19;21098;-73
2022/01/19 03:32:18;;;;;;;13.13;8.05;;;1.60;80.30;;;;;;7374475;19;20156;-73
2022/01/19 03:34:50;;;;;;;13.52;7.97;;;1.60;80.30;;;;;;7379762;19;20451;-73
2022/01/19 03:37:19;;;;;;;12.70;6.68;;;1.60;80.00;;;;;;7378963;19;20146;-73
2022/01/19 03:39:51;;;;;;;15.18;7.60;;;1.50;79.90;;;;;;7375685;19;20151;-74
2022/01/19 03:42:21;;;;;;;18.17;8.77;;;1.50;79.80;;;;;;7379241;19;20513;-73
2022/01/19 03:44:51;;;;;;;16.75;8.45;;;1.50;80.00;;;;;;7380194;19;20150;-73
2022/01/19 03:47:21;;;;;;;13.38;10.30;;;;;;;;;;7373348;19;20820;-73
2022/01/19 03:49:50;;;;;;;11.80;7.90;;;;;;;;;;7378512;19;20140;-73
2022/01/19 03:52:21;;;;;;;13.60;8.80;;;;;;;;;;7378026;19;20136;-73
2022/01/19 03:54:53;;;;;;;16.75;8.85;;;;;;;;;;7378157;19;20136;-73
2022/01/19 03:57:23;;;;;;;12.68;7.82;;;;;;;;;;7377374;19;20885;-73
2022/01/19 03:59:52;;;;;;;13.05;8.20;;;;;;;;;;7375690;19;20195;-72
2022/01/19 04:02:26;;;;;;;15.70;9.30;;;;;;;;;;7362976;19;20155;-73
2022/01/19 04:05:02;;;;;;;12.52;7.88;;;;;;;;;;7376425;19;20154;-74
2022/01/19 04:07:32;;;;;;;21.38;9.20;;;;;;;;;;7375828;19;20135;-73
2022/01/19 04:10:07;;;;;;;14.05;8.52;;;;;;;;;;7378325;19;20152;-73
2022/01/19 04:12:47;;;;;;;18.35;9.80;;;;;;;;;;7372319;19;20153;-73
2022/01/19 04:15:19;;;;;;;13.35;8.70;;;;;;;;;;7373668;19;20135;-73
2022/01/19 04:17:51;;;;;;;14.18;8.90;;;;;;;;;;7371344;19;20139;-74
2022/01/19 04:20:23;;;;;;;13.60;8.45;;;;;;;;;;7375624;19;20509;-76
2022/01/19 04:22:53;;;;;;;11.30;7.90;;;;;;;;;;7375727;19;20156;-73
2022/01/19 04:25:25;;;;;;;17.48;9.55;;;;;;;;;;7374862;19;20139;-74
2022/01/19 04:27:55;;;;;;;15.88;9.18;;;;;;;;;;7374590;19;20168;-73
2022/01/19 04:30:27;;;;;;;13.48;7.47;;;;;;;;;;7373094;19;20207;-74
2022/01/19 04:33:09;;;;;;;9.80;6.68;;;;;;;;;;7375411;19;20146;-73
2022/01/19 04:35:50;;;;;;;14.98;8.77;;;;;;;;;;7373526;19;20144;-73
2022/01/19 04:44:34;;;;;;;17.65;9.05;;;;;;;;;;7371489;19;20140;-73
2022/01/19 05:03:47;;;;;;;19.65;9.10;;;0.80;82.00;;;;;;7380347;19;21127;-74
2022/01/19 05:06:26;;;;;;;15.77;8.55;;;0.90;82.00;;;;;;7380563;19;20136;-73
2022/01/19 05:09:07;;;;;;;19.00;11.25;;;0.90;81.80;;;;;;7383133;19;20149;-72
2022/01/19 05:14:22;;;;;;;15.25;9.00;;;1.00;81.50;;;;;;7386423;19;20543;-74
2022/01/19 05:16:52;;;;;;;16.08;9.40;;;1.00;81.50;;;;;;7393524;19;20527;-73
2022/01/19 05:19:22;;;;;;;15.15;9.70;;;1.00;81.40;;;;;;7397309;19;20143;-73
2022/01/19 05:21:52;;;;;;;18.02;10.57;;;1.00;81.10;;;;;;7400717;19;20183;-71
2022/01/19 05:24:41;;;;;;;13.80;9.35;;;1.00;81.30;;;;;;7403276;19;20641;-72
2022/01/19 05:27:22;;;;;;;22.20;10.95;;;1.00;81.50;;;;;;7394333;19;20135;-73
2022/01/19 05:29:56;;;;;;;24.00;11.50;;;0.90;81.40;;;;;;7389583;19;20140;-74
2022/01/19 05:32:25;;;;;;;19.40;11.13;;;0.90;81.60;;;;;;7382818;19;20139;-73
2022/01/19 05:34:55;;;;;;;16.10;10.57;;;0.90;81.70;;;;;;7380505;19;20131;-73
2022/01/19 05:37:46;;;;;;;23.35;10.30;;;0.80;81.70;;;;;;7379857;19;20143;-73
2022/01/19 05:40:25;;;;;;;17.85;10.07;;;0.80;81.60;;;;;;7375397;19;20606;-73
2022/01/19 05:42:59;;;;;;;16.83;9.52;;;0.80;81.60;;;;;;7376794;19;20126;-74
2022/01/19 05:45:32;;;;;;;16.70;9.65;;;0.80;81.50;;;;;;7380089;19;20143;-73
2022/01/19 05:48:14;;;;;;;23.45;10.75;;;0.80;81.60;;;;;;7412733;19;20186;-73
2022/01/19 05:50:47;;;;;;;23.98;10.50;;;0.80;81.30;;;;;;7415770;19;20124;-73
2022/01/19 05:53:19;;;;;;;18.33;10.10;;;0.90;81.50;;;;;;7413860;19;20139;-74
2022/01/19 05:55:49;;;;;;;18.23;10.32;;;0.80;81.40;;;;;;7411357;19;20139;-74
2022/01/19 05:58:18;;;;;;;20.02;9.52;;;0.90;81.50;;;;;;7411637;19;20179;-73
2022/01/19 06:00:56;;;;;;;16.83;9.48;;;0.80;81.60;;;;;;7402408;19;20491;-74
2022/01/19 06:03:25;;;;;;;19.90;10.20;;;0.80;81.90;;;;;;7406843;19;20147;-73
2022/01/19 06:06:13;;;;;;;17.50;10.82;;;0.80;81.60;;;;;;7406384;19;20168;-74
2022/01/19 06:09:11;;;;;;;23.95;14.07;;;0.80;81.40;;;;;;7422035;19;20135;-73
2022/01/19 06:11:41;;;;;;;22.40;12.75;;;0.80;81.70;;;;;;7423990;19;20135;-74
2022/01/19 06:14:10;;;;;;;24.52;11.38;;;0.80;81.70;;;;;;7423068;19;20132;-73
2022/01/19 06:16:45;;;;;;;26.95;13.63;;;0.80;81.30;;;;;;7420065;19;20131;-74
2022/01/19 06:19:19;;;;;;;27.65;13.45;;;0.90;81.40;;;;;;7425654;19;20139;-71
2022/01/19 06:21:48;;;;;;;23.48;13.40;;;0.80;81.50;;;;;;7424697;19;20544;-73
2022/01/19 06:24:18;;;;;;;26.20;12.00;;;0.80;81.20;;;;;;7429167;19;20142;-73
2022/01/19 06:26:48;;;;;;;22.15;13.15;;;0.80;81.00;;;;;;7398631;19;20128;-72
2022/01/19 06:29:18;;;;;;;18.13;9.73;;;0.80;81.20;;;;;;7385252;19;20614;-74
2022/01/19 06:31:51;;;;;;;20.27;10.73;;;0.80;81.00;;;;;;7389432;19;20135;-72
2022/01/19 06:34:21;;;;;;;21.80;13.30;;;0.90;80.90;;;;;;7375129;19;20600;-73
2022/01/19 06:37:15;;;;;;;22.20;12.73;;;0.90;80.70;;;;;;7380257;19;20155;-73
2022/01/19 06:39:51;;;;;;;17.60;10.98;;;1.00;80.40;;;;;;7379173;19;20172;-74
2022/01/19 06:42:24;;;;;;;19.02;10.88;;;1.10;80.20;;;;;;7370693;19;20164;-74
2022/01/19 06:44:54;;;;;;;19.02;12.27;;;2.10;80.80;;;;;;7377220;19;20214;-74
2022/01/19 06:47:26;;;;;;;15.48;9.50;;;1.40;80.10;;;;;;7378693;19;20804;-73
2022/01/19 06:49:56;;;;;;;17.30;9.10;;;1.20;79.90;;;;;;7377405;19;20142;-73
2022/01/19 06:52:34;;;;;;;20.50;11.85;;;1.30;79.80;;;;;;7376141;19;20144;-74
2022/01/19 06:55:03;;;;;;;20.35;11.15;;;1.30;79.50;;;;;;7376184;19;20140;-73
2022/01/19 06:57:33;;;;;;;30.30;12.73;;;1.30;79.70;;;;;;7378242;19;20756;-74
2022/01/19 07:00:32;;;;;;;14.95;10.55;;;1.30;79.80;;;;;;7369363;19;21937;-72
2022/01/19 07:03:13;;;;;;;17.42;10.30;;;1.20;80.10;;;;;;7376213;19;20163;-73
2022/01/19 07:05:51;;;;;;;15.27;10.00;;;1.10;80.30;;;;;;7370919;19;20143;-73
2022/01/19 07:08:38;;;;;;;22.83;11.07;;;1.00;80.60;;;;;;7373359;19;20619;-72
2022/01/19 07:11:07;;;;;;;17.48;10.80;;;1.00;80.90;;;;;;7374423;19;20143;-73
2022/01/19 07:13:37;;;;;;;24.05;10.25;;;1.00;80.90;;;;;;7372668;19;20131;-73
2022/01/19 07:16:07;;;;;;;14.27;9.18;;;1.00;80.80;;;;;;7372876;19;20161;-73
2022/01/19 07:18:41;;;;;;;13.52;9.00;;;1.00;80.80;;;;;;7373740;19;20152;-73
2022/01/19 07:21:11;;;;;;;19.15;9.80;;;0.90;80.80;;;;;;7376240;19;20135;-73
2022/01/19 07:23:51;;;;;;;13.88;8.50;;;0.90;81.00;;;;;;7373109;19;20147;-72
2022/01/19 07:26:24;;;;;;;17.65;10.48;;;0.90;81.30;;;;;;7373637;19;20542;-72
2022/01/19 07:28:53;;;;;;;20.20;10.95;;;0.90;80.70;;;;;;7369638;19;20128;-72
2022/01/19 07:31:23;;;;;;;20.27;10.40;;;0.90;80.60;;;;;;7367088;19;20144;-73
2022/01/19 07:34:00;;;;;;;24.38;10.10;;;0.80;80.60;;;;;;7372755;19;20132;-72
2022/01/19 07:36:31;;;;;;;22.75;11.32;;;0.80;80.80;;;;;;7368515;19;20149;-72
2022/01/19 07:39:00;;;;;;;15.30;9.82;;;0.80;80.80;;;;;;7372906;19;20209;-72
2022/01/19 07:41:30;;;;;;;23.88;10.60;;;0.80;80.70;;;;;;7371452;19;20131;-73
2022/01/19 07:44:00;;;;;;;15.77;9.65;;;0.80;80.80;;;;;;7372557;19;20171;-73
2022/01/19 07:46:48;;;;;;;19.02;10.05;;;0.80;81.10;;;;;;7369486;19;20221;-73
2022/01/19 07:49:42;;;;;;;18.13;10.57;;;0.80;81.00;;;;;;7367118;19;20630;-71
2022/01/19 07:52:28;;;;;;;17.67;9.73;;;0.80;80.90;;;;;;7370747;19;20143;-75
2022/01/19 07:55:16;;;;;;;17.33;9.45;;;0.90;80.90;;;;;;7363258;19;20155;-74
2022/01/19 07:58:05;;;;;;;19.48;11.55;;;1.00;80.40;;;;;;7367221;19;20183;-74
2022/01/19 08:00:42;;;;;;;16.27;9.93;;;1.10;79.80;;;;;;7359330;19;21537;-74
2022/01/19 08:03:31;;;;;;;18.42;10.52;;;1.20;79.40;;;;;;7363780;19;20202;-72
2022/01/19 08:06:10;;;;;;;20.02;9.60;;;1.30;79.90;;;;;;7373214;19;20171;-72
2022/01/19 08:08:41;;;;;;;15.63;8.98;;;1.40;78.70;;;;;;7372243;19;20163;-74
2022/01/19 08:11:10;;;;;;;18.02;11.50;;;1.40;79.10;;;;;;7378122;19;20146;-73
2022/01/19 08:13:44;;;;;;;16.90;10.95;;;1.50;78.20;;;;;;7373639;19;20142;-72
2022/01/19 08:16:14;;;;;;;24.98;11.73;;;1.60;78.00;;;;;;7370109;19;20183;-72
2022/01/19 08:18:43;;;;;;;17.08;10.63;;;1.70;77.60;;;;;;7361767;19;20174;-73
2022/01/19 08:21:15;;;;;;;18.45;10.23;;;1.80;77.10;;;;;;7359253;19;20139;-74
2022/01/19 08:23:53;;;;;;;16.63;10.77;;;1.90;77.20;;;;;;7371155;19;20127;-74
2022/01/19 08:26:22;;;;;;;18.05;10.05;;;2.00;76.30;;;;;;7377126;19;20624;-74
2022/01/19 08:28:56;;;;;;;21.13;12.35;;;2.10;76.00;;;;;;7373431;19;20134;-71
2022/01/19 08:31:29;;;;;;;17.95;11.23;;;2.10;75.90;;;;;;7373720;19;20134;-73
2022/01/19 08:34:13;;;;;;;16.55;9.43;;;2.20;75.50;;;;;;7379142;19;20171;-75
2022/01/19 08:37:04;;;;;;;19.75;13.38;;;;;;;;;;7357393;19;21053;-74
2022/01/19 08:39:44;;;;;;;18.40;12.43;;;;;;;;;;7373550;19;20144;-74
2022/01/19 08:42:14;;;;;;;20.92;12.43;;;;;;;;;;7376618;19;20236;-73
2022/01/19 08:44:44;;;;;;;18.10;10.63;;;;;;;;;;7374964;19;20738;-73
2022/01/19 08:47:25;;;;;;;16.60;10.80;;;;;;;;;;7372174;19;20155;-74
2022/01/19 08:50:13;;;;;;;19.60;11.07;;;;;;;;;;7371753;19;20217;-75
2022/01/19 08:52:45;;;;;;;19.75;10.90;;;;;;;;;;7371792;19;20881;-75
2022/01/19 08:55:24;;;;;;;18.08;11.25;;;;;;;;;;7368435;19;20784;-75
2022/01/19 08:57:54;;;;;;;17.00;11.73;;;;;;;;;;7373017;19;20279;-75
2022/01/19 09:00:24;;;;;;;17.33;10.52;;;;;;;;;;7361394;19;20246;-75
2022/01/19 09:02:54;;;;;;;21.05;12.10;;;;;;;;;;7373105;19;20140;-75
2022/01/19 09:05:24;;;;;;;19.40;9.80;;;;;;;;;;7378564;19;20681;-75
2022/01/19 09:07:56;;;;;;;17.88;11.30;;;;;;;;;;7379013;19;20983;-74
2022/01/19 09:10:26;;;;;;;17.98;11.82;;;;;;;;;;7381386;19;20166;-74
2022/01/19 09:12:56;;;;;;;15.88;10.82;;;;;;;;;;7383387;19;20132;-74
2022/01/19 09:15:25;;;;;;;19.98;11.20;;;;;;;;;;7386103;19;20657;-75
2022/01/19 09:17:55;;;;;;;16.52;10.02;;;;;;;;;;7382234;19;20142;-75
2022/01/19 09:20:24;;;;;;;15.60;10.00;;;;;;;;;;7386738;19;20608;-76
2022/01/19 09:22:58;;;;;;;15.65;9.90;;;2.40;75.40;;;;;;7388793;19;20569;-75
2022/01/19 09:25:32;;;;;;;11.97;9.70;;;10.30;52.20;;;;;;7393924;19;20139;-76
2022/01/19 09:28:02;;;;;;;11.80;9.20;;;11.40;48.40;;;;;;7393546;19;20887;-75
2022/01/19 09:30:31;;;;;;;12.70;10.07;;;;;;;;;;7407798;19;20380;-75
2022/01/19 09:33:09;;;;;;;14.70;11.00;;;;;;;;;;7419907;19;20409;-76
2022/01/19 09:36:04;;;;;;;12.27;9.57;;;;;;;;;;7420059;19;20404;-75
2022/01/19 09:38:37;;;;;;;20.13;10.83;;;;;;;;;;7429410;19;20404;-77
2022/01/19 09:41:08;;;;;;;10.53;8.87;;;;;;;;;;7426289;19;20392;-76
2022/01/19 09:43:38;;;;;;;11.80;9.20;;;;;;;;;;7424177;19;20388;-75
2022/01/19 09:46:07;;;;;;;12.90;9.43;;;;;;;;;;7421239;19;20404;-75
2022/01/19 09:48:37;;;;;;;17.23;11.53;;;;;;;;;;7419171;19;20399;-76
2022/01/19 09:51:06;;;;;;;11.87;9.80;;;12.50;46.30;;;;;;7418481;19;21035;-77
2022/01/19 09:53:38;;;;;;;10.53;9.40;;;16.00;38.50;;;;;;7426674;19;20405;-76
2022/01/19 09:56:08;;;;;;;10.70;9.60;;;16.50;37.50;;;;;;7425475;19;20405;-76
2022/01/19 09:58:37;;;;;;;12.43;9.30;;;15.80;37.00;;;;;;7429365;19;20452;-77
2022/01/19 10:01:07;;;;;;;11.47;9.40;;;14.50;38.40;;;;;;7426467;19;20421;-74
2022/01/19 10:03:36;;;;;;;10.43;9.37;;;14.20;41.00;;;;;;7429093;19;20404;-77
2022/01/19 10:06:10;;;;;;;9.70;7.97;;;14.80;40.10;;;;;;7429982;19;20397;-76
2022/01/19 10:08:45;;;;;;;12.07;10.10;;;14.70;39.90;;;;;;7424518;19;20408;-76
2022/01/19 10:11:19;;;;;;;12.63;10.37;;;13.20;40.80;;;;;;7393625;19;20403;-76
2022/01/19 10:19:19;;;;;;;13.40;10.03;;;9.30;49.70;;;;;;7382804;19;21060;-76
2022/01/19 10:22:08;;;;;;;12.50;9.53;;;8.70;51.10;;;;;;7385322;19;20400;-76
2022/01/19 10:24:51;;;;;;;11.27;8.90;;;8.20;53.30;;;;;;7379721;19;20834;-76
2022/01/19 10:27:23;;;;;;;13.87;8.60;;;7.70;54.00;;;;;;7378434;19;20368;-75
2022/01/19 10:29:54;;;;;;;12.10;9.20;;;7.60;53.70;;;;;;7377382;19;20443;-76
2022/01/19 10:32:24;;;;;;;11.43;9.27;;;7.40;54.80;;;;;;7378177;19;20424;-76
2022/01/19 10:34:55;;;;;;;10.20;8.60;;;;;;;;;;7375609;19;20380;-76
2022/01/19 10:37:26;;;;;;;11.23;8.67;;;7.50;54.90;;;;;;7372161;19;20412;-76
2022/01/19 10:40:01;;;;;;;12.23;9.40;;;7.10;55.00;;;;;;7374767;19;20372;-75
2022/01/19 10:42:34;;;;;;;13.10;8.40;;;7.20;55.90;;;;;;7376463;19;20409;-76
2022/01/19 10:45:09;;;;;;;12.30;8.87;;;7.40;56.10;;;;;;7376443;19;20170;-76
2022/01/19 10:47:44;;;;;;;12.93;7.83;;;7.90;54.40;;;;;;7377752;19;20390;-75
2022/01/19 10:50:16;;;;;;;9.97;8.57;;;8.00;53.40;;;;;;7374648;19;20416;-76
2022/01/19 10:52:48;;;;;;;11.60;8.70;;;7.80;54.00;;;;;;7372747;19;20385;-76
2022/01/19 10:55:31;;;;;;;14.20;8.10;;;7.80;55.20;;;;;;7373953;19;20384;-75
2022/01/19 10:58:04;;;;;;;11.40;8.23;;;7.70;54.70;;;;;;7373430;19;20420;-74
2022/01/19 11:00:36;;;;;;;12.33;8.10;;;7.70;54.20;;;;;;7372958;19;20972;-74
2022/01/19 11:03:18;;;;;;;14.00;7.50;;;7.70;54.50;;;;;;7378387;19;21173;-74
2022/01/19 11:05:50;;;;;;;9.43;7.77;;;7.90;54.00;;;;;;7375999;19;20404;-75
2022/01/19 11:08:22;;;;;;;13.23;8.07;;;8.30;53.00;;;;;;7373628;19;20416;-75
2022/01/19 11:10:57;;;;;;;12.00;8.03;;;8.80;52.70;;;;;;7372291;19;20411;-75
2022/01/19 11:13:32;;;;;;;16.80;8.00;;;;;;;;;;7374685;19;20740;-75
2022/01/19 11:16:02;;;;;;;9.70;7.30;;;;;;;;;;7372442;19;20760;-76
2022/01/19 11:18:32;;;;;;;8.40;7.47;;;;;;;;;;7373306;19;20384;-76
2022/01/19 11:21:04;;;;;;;7.53;6.50;;;;;;;;;;7373782;19;20404;-76
2022/01/19 11:23:39;;;;;;;12.20;7.33;;;;;;;;;;7374342;19;20400;-76
2022/01/19 11:26:15;;;;;;;9.60;8.60;;;;;;;;;;7373583;19;20404;-76
2022/01/19 11:28:47;;;;;;;13.97;10.50;;;;;;;;;;7374253;19;20413;-76
2022/01/19 11:31:19;;;;;;;11.03;9.13;;;;;;;;;;7371745;19;20372;-76
2022/01/19 11:33:51;;;;;;;11.33;9.87;;;;;;;;;;7372416;19;20412;-76
2022/01/19 11:36:22;;;;;;;16.73;10.20;;;;;;;;;;7372072;19;20372;-76
2022/01/19 11:39:06;;;;;;;12.43;9.80;;;;;;;;;;7376996;19;21318;-77
2022/01/19 11:41:43;;;;;;;16.27;10.43;;;;;;;;;;7378472;19;21070;-77
2022/01/19 11:44:16;;;;;;;11.33;10.17;;;10.70;51.10;;;;;;7377940;19;20409;-76
2022/01/19 11:46:48;;;;;;;13.60;10.20;;;;;;;;;;7377558;19;21352;-76
2022/01/19 11:49:20;;;;;;;11.57;10.33;;;17.60;34.20;;;;;;7377176;19;20943;-76
2022/01/19 11:51:57;;;;;;;16.07;10.67;;;15.90;36.70;;;;;;7380619;19;21471;-75
2022/01/19 11:54:33;;;;;;;11.50;9.83;;;14.30;39.50;;;;;;7377780;19;20391;-75
2022/01/19 11:57:28;;;;;;;13.13;10.10;;;15.50;38.10;;;;;;7380881;19;20380;-76
2022/01/19 12:00:15;;;;;;;13.87;10.67;;;15.60;37.40;;;;;;7374600;19;21084;-75
2022/01/19 12:02:50;;;;;;;12.77;9.70;;;16.70;36.20;;;;;;7375134;19;20716;-73
2022/01/19 12:05:29;;;;;;;13.13;10.77;;;17.00;35.80;;;;;;7375125;19;21059;-76
2022/01/19 12:08:00;;;;;;;13.47;11.67;;;;;;;;;;7375651;19;20971;-76
2022/01/19 12:10:47;;;;;;;15.80;11.00;;;;;;;;;;7374551;19;21442;-76
2022/01/19 12:13:43;;;;;;;11.83;9.50;;;17.50;35.20;;;;;;7373989;19;20491;-76
2022/01/19 12:16:29;;;;;;;14.50;11.00;;;19.20;32.30;;;;;;7374399;19;20375;-76
2022/01/19 12:19:00;;;;;;;11.83;9.17;;;17.60;32.30;;;;;;7376009;19;20420;-76
2022/01/19 12:21:41;;;;;;;13.20;9.90;;;;;;;;;;7376478;19;20412;-75
2022/01/19 12:24:19;;;;;;;12.40;10.40;;;;;;;;;;7369821;19;20422;-75
2022/01/19 12:27:01;;;;;;;13.03;11.10;;;17.00;35.50;;;;;;7377584;19;20416;-75
2022/01/19 12:29:46;;;;;;;10.63;9.00;;;;;;;;;;7380130;19;21397;-76
2022/01/19 12:32:33;;;;;;;12.43;8.70;;;;;;;;;;7377803;19;20762;-75
2022/01/19 12:35:15;;;;;;;11.70;8.40;;;14.20;38.00;;;;;;7374817;19;20427;-76
2022/01/19 12:37:46;;;;;;;11.90;8.37;;;;;;;;;;7376476;19;20940;-75
2022/01/19 12:40:35;;;;;;;9.40;8.20;;;;;;;;;;7377568;19;20396;-75
2022/01/19 12:43:09;;;;;;;12.60;8.57;;;11.30;44.90;;;;;;7375339;19;20435;-75
2022/01/19 12:45:47;;;;;;;11.23;8.70;;;;;;;;;;7366852;19;20996;-75
2022/01/19 12:48:18;;;;;;;11.93;8.40;;;;;;;;;;7387084;19;20434;-77
2022/01/19 12:50:51;;;;;;;12.30;8.63;;;;;;;;;;7418784;19;20401;-76
2022/01/19 12:53:27;;;;;;;13.33;8.97;;;;;;;;;;7410245;19;20414;-74
2022/01/19 12:55:59;;;;;;;10.80;7.73;;;;;;;;;;7416517;19;20424;-76
2022/01/19 12:58:33;;;;;;;13.23;9.00;;;;;;;;;;7414967;19;21020;-76
2022/01/19 13:01:05;;;;;;;10.10;7.73;;;;;;;;;;7404392;19;20650;-77
2022/01/19 13:03:37;;;;;;;9.97;7.37;;;;;;;;;;7413501;19;20420;-75
2022/01/19 13:06:10;;;;;;;10.23;7.73;;;;;;;;;;7424005;19;20416;-77
2022/01/19 13:08:49;;;;;;;9.70;7.30;;;;;;;;;;7425490;19;20423;-76
2022/01/19 13:11:35;;;;;;;10.10;6.77;;;;;;;;;;7426690;19;20416;-77
2022/01/19 13:14:08;;;;;;;10.53;7.40;;;;;;;;;;7429239;19;20416;-76
2022/01/19 13:16:44;;;;;;;11.60;7.93;;;;;;;;;;7425513;19;20426;-77
2022/01/19 13:19:15;;;;;;;9.93;8.00;;;;;;;;;;7382740;19;20451;-77
2022/01/19 13:21:51;;;;;;;10.00;7.77;;;;;;;;;;7395178;19;21033;-76
2022/01/19 13:24:26;;;;;;;10.17;7.20;;;;;;;;;;7391196;19;20408;-76
2022/01/19 13:26:58;;;;;;;12.90;8.27;;;;;;;;;;7389980;19;20943;-76
2022/01/19 13:29:30;;;;;;;14.37;8.00;;;;;;;;;;7389975;19;20936;-76
2022/01/19 13:32:03;;;;;;;16.25;8.05;;;;;;;;;;7388009;19;20834;-75
2022/01/19 13:34:33;;;;;;;12.33;7.80;;;;;;;;;;7386198;19;20203;-75
2022/01/19 13:37:06;;;;;;;13.82;8.30;;;;;;;;;;7386037;19;20412;-76
2022/01/19 13:39:36;;;;;;;11.40;8.13;;;;;;;;;;7382391;19;20765;-75
2022/01/19 13:42:06;;;;;;;13.55;8.63;;;;;;;;;;7388943;19;20923;-75
2022/01/19 13:44:38;;;;;;;12.52;7.35;;;;;;;;;;7390449;19;20132;-75
2022/01/19 13:47:16;;;;;;;11.73;8.35;;;;;;;;;;7394795;19;20207;-74
2022/01/19 13:49:55;;;;;;;13.50;7.18;;;;;;;;;;7396738;19;20415;-75
2022/01/19 13:52:28;;;;;;;11.85;6.93;;;;;;;;;;7398605;19;20523;-75
2022/01/19 13:54:58;;;;;;;10.25;6.60;;;;;;;;;;7394675;19;20485;-75
2022/01/19 13:57:31;;;;;;;9.60;6.80;;;;;;;;;;7382833;19;20143;-74
2022/01/19 14:00:14;;;;;;;8.35;6.72;;;;;;;;;;7378394;19;20654;-78
2022/01/19 14:02:43;;;;;;;10.18;7.07;;;;;;;;;;7376486;19;20158;-75
2022/01/19 14:05:13;;;;;;;10.10;7.05;;;;;;;;;;7374691;19;20135;-74
2022/01/19 14:07:51;;;;;;;10.57;7.25;;;;;;;;;;7376853;19;20175;-75
2022/01/19 14:10:21;;;;;;;11.07;6.97;;;;;;;;;;7379825;19;20610;-76
2022/01/19 14:12:51;;;;;;;10.20;6.60;;;;;;;;;;7375957;19;20634;-75
2022/01/19 14:15:29;;;;;;;10.88;6.80;;;;;;;;;;7374480;19;20135;-75
2022/01/19 14:18:13;;;;;;;8.77;5.60;;;;;;;;;;7369589;19;20143;-77
2022/01/19 14:20:42;;;;;;;7.30;5.57;;;;;;;;;;7374044;19;20478;-76
2022/01/19 14:23:18;;;;;;;7.82;5.63;;;;;;;;;;7374316;19;20148;-77
2022/01/19 14:25:50;;;;;;;6.50;5.05;;;;;;;;;;7376949;19;20159;-76
2022/01/19 14:28:21;;;;;;;9.25;4.95;;;;;;;;;;7374886;19;20139;-77
2022/01/19 14:30:50;;;;;;;9.90;5.88;;;;;;;;;;7372939;19;20144;-74
2022/01/19 14:33:20;;;;;;;7.70;4.63;;;;;;;;;;7375140;19;20634;-75
2022/01/19 14:35:51;;;;;;;7.32;4.28;;;;;;;;;;7374566;19;20600;-77
2022/01/19 14:38:26;;;;;;;6.15;4.00;;;;;;;;;;7373678;19;20154;-77
2022/01/19 14:41:00;;;;;;;6.93;4.78;;;;;;;;;;7378897;19;20130;-77
2022/01/19 14:43:38;;;;;;;7.25;4.88;;;;;;;;;;7376051;19;20135;-76
2022/01/19 14:46:10;;;;;;;10.38;6.82;;;;;;;;;;7367052;19;20141;-77
2022/01/19 14:48:42;;;;;;;9.27;5.68;;;;;;;;;;7374670;19;20131;-73
2022/01/19 14:51:23;;;;;;;7.47;5.30;;;;;;;;;;7360669;19;20139;-74
2022/01/19 14:53:56;;;;;;;16.13;5.63;;;;;;;;;;7366903;19;20139;-73
2022/01/19 14:56:31;;;;;;;8.32;5.55;;;;;;;;;;7366000;19;21058;-73
2022/01/19 14:59:01;;;;;;;7.82;5.00;;;;;;;;;;7365277;19;20181;-74
2022/01/19 15:01:32;;;;;;;11.73;6.90;;;;;;;;;;7355536;19;20166;-70
2022/01/19 15:04:02;;;;;;;9.80;6.13;;;;;;;;;;7365828;19;20798;-70